createdAt,value
2022-11-24T00:01:24.627Z,97160.19
2022-11-24T00:03:57.849Z,97153.50
2022-11-24T00:06:25.787Z,97170.66
2022-11-24T00:08:52.998Z,97176.94
2022-11-24T00:11:26.933Z,97175.81
2022-11-24T00:13:54.661Z,97179.13
2022-11-24T00:16:24.770Z,97167.97
2022-11-24T00:18:54.632Z,97172.81
2022-11-24T00:21:22.164Z,97171.19
2022-11-24T00:23:50.026Z,97175.66
2022-11-24T00:26:18.878Z,97180.00
2022-11-24T00:28:48.031Z,97173.66
2022-11-24T00:31:20.938Z,97173.38
2022-11-24T00:33:49.263Z,97174.69
2022-11-24T00:36:17.742Z,97180.91
2022-11-24T00:38:45.938Z,97192.53
2022-11-24T00:41:13.425Z,97184.72
2022-11-24T00:43:41.099Z,97191.50
2022-11-24T00:46:08.089Z,97192.88
2022-11-24T00:48:35.075Z,97205.72
2022-11-24T00:51:05.734Z,97207.09
2022-11-24T00:53:32.950Z,97211.25
2022-11-24T00:56:04.109Z,97211.88
2022-11-24T00:58:31.868Z,97214.50
2022-11-24T01:01:12.017Z,97213.88
2022-11-24T01:03:41.204Z,97210.94
2022-11-24T01:06:19.627Z,97212.97
2022-11-24T01:08:47.243Z,97218.91
2022-11-24T01:11:21.198Z,97224.63
2022-11-24T01:13:52.175Z,97231.56
2022-11-24T01:16:23.970Z,97236.09
2022-11-24T01:18:51.421Z,97229.91
2022-11-24T01:21:19.638Z,97227.94
2022-11-24T01:23:46.998Z,97222.59
2022-11-24T01:26:20.197Z,97227.25
2022-11-24T01:28:48.007Z,97223.00
2022-11-24T01:31:16.968Z,97224.22
2022-11-24T01:33:44.483Z,97222.03
2022-11-24T01:36:11.748Z,97216.47
2022-11-24T01:38:38.965Z,97215.50
2022-11-24T01:41:10.784Z,97219.00
2022-11-24T01:43:38.318Z,97210.38
2022-11-24T01:46:17.459Z,97222.13
2022-11-24T01:48:49.708Z,97203.41
2022-11-24T01:51:23.407Z,97205.38
2022-11-24T01:53:57.494Z,97204.53
2022-11-24T01:56:25.718Z,97216.28
2022-11-24T01:58:57.860Z,97224.03
2022-11-24T02:01:25.774Z,97223.09
2022-11-24T02:03:53.683Z,97224.91
2022-11-24T02:06:25.397Z,97218.97
2022-11-24T02:09:00.400Z,97220.91
2022-11-24T02:11:31.012Z,97235.84
2022-11-24T02:13:58.199Z,97234.25
2022-11-24T02:16:26.334Z,97234.00
2022-11-24T02:18:53.900Z,97234.72
2022-11-24T02:21:20.742Z,97241.59
2022-11-24T02:23:54.290Z,97233.56
2022-11-24T02:26:41.746Z,97238.00
2022-11-24T02:29:10.725Z,97235.84
2022-11-24T02:31:40.212Z,97244.59
2022-11-24T02:34:07.317Z,97240.00
2022-11-24T02:36:34.147Z,97245.56
2022-11-24T02:39:01.011Z,97224.19
2022-11-24T02:41:29.188Z,97226.78
2022-11-24T02:44:00.186Z,97233.84
2022-11-24T02:46:27.479Z,97248.03
2022-11-24T02:48:54.363Z,97253.59
2022-11-24T02:51:21.287Z,97253.75
2022-11-24T02:53:48.162Z,97255.22
2022-11-24T02:56:15.104Z,97251.34
2022-11-24T02:58:41.960Z,97248.66
2022-11-24T03:01:08.838Z,97254.72
2022-11-24T03:03:35.899Z,97254.47
2022-11-24T03:06:02.790Z,97254.72
2022-11-24T03:08:29.734Z,97266.38
2022-11-24T03:10:56.541Z,97270.13
2022-11-24T03:13:23.558Z,97269.28
2022-11-24T03:15:50.438Z,97266.13
2022-11-24T03:18:17.353Z,97273.88
2022-11-24T03:20:44.328Z,97271.44
2022-11-24T03:23:11.504Z,97267.56
2022-11-24T03:25:38.410Z,97266.13
2022-11-24T03:28:05.246Z,97259.31
2022-11-24T03:30:32.218Z,97267.94
2022-11-24T03:32:59.080Z,97265.28
2022-11-24T03:35:26.125Z,97258.84
2022-11-24T03:37:52.963Z,97261.28
2022-11-24T03:40:20.018Z,97263.72
2022-11-24T03:42:46.859Z,97266.59
2022-11-24T03:48:00.537Z,97273.28
2022-11-24T03:50:27.385Z,97280.56
2022-11-24T03:52:54.198Z,97279.22
2022-11-24T03:55:21.058Z,97293.19
2022-11-24T03:57:48.035Z,97318.00
2022-11-24T04:00:15.354Z,97330.94
2022-11-24T04:02:42.280Z,97311.41
2022-11-24T04:05:10.080Z,97316.75
2022-11-24T04:07:36.918Z,97314.38
2022-11-24T04:10:04.357Z,97319.94
2022-11-24T04:12:46.802Z,97316.31
2022-11-24T04:15:19.231Z,97318.78
2022-11-24T04:17:48.744Z,97323.41
2022-11-24T04:20:16.657Z,97317.59
2022-11-24T04:22:44.175Z,97316.50
2022-11-24T04:25:11.471Z,97328.50
2022-11-24T04:27:39.148Z,97327.56
2022-11-24T04:30:07.259Z,97326.72
2022-11-24T04:32:35.327Z,97319.28
2022-11-24T04:35:02.303Z,97333.13
2022-11-24T04:37:29.570Z,97331.41
2022-11-24T04:39:57.322Z,97338.31
2022-11-24T04:42:24.563Z,97332.63
2022-11-24T04:44:51.414Z,97331.41
2022-11-24T04:47:23.447Z,97336.53
2022-11-24T04:49:51.417Z,97341.38
2022-11-24T04:52:20.384Z,97339.06
2022-11-24T04:54:48.936Z,97339.47
2022-11-24T04:57:20.896Z,97341.75
2022-11-24T04:59:50.077Z,97341.41
2022-11-24T05:02:17.447Z,97349.91
2022-11-24T05:04:44.956Z,97349.28
2022-11-24T05:07:17.939Z,97350.00
2022-11-24T05:10:05.199Z,97359.13
2022-11-24T05:12:32.580Z,97360.31
2022-11-24T05:15:00.596Z,97364.56
2022-11-24T05:17:33.257Z,97371.72
2022-11-24T05:20:00.821Z,97381.34
2022-11-24T05:22:29.289Z,97393.09
2022-11-24T05:24:57.420Z,97388.25
2022-11-24T05:27:24.581Z,97392.25
2022-11-24T05:29:51.772Z,97390.41
2022-11-24T05:32:18.833Z,97396.75
2022-11-24T05:34:45.889Z,97389.97
2022-11-24T05:37:12.572Z,97391.19
2022-11-24T05:39:39.450Z,97397.50
2022-11-24T05:42:26.081Z,97411.56
2022-11-24T05:44:53.783Z,97408.63
2022-11-24T05:47:21.452Z,97407.06
2022-11-24T05:49:48.343Z,97408.66
2022-11-24T05:52:16.490Z,97418.88
2022-11-24T05:54:43.412Z,97409.16
2022-11-24T05:57:10.252Z,97416.81
2022-11-24T05:59:37.207Z,97418.75
2022-11-24T06:02:04.151Z,97432.84
2022-11-24T06:04:32.442Z,97427.50
2022-11-24T06:07:00.152Z,97426.88
2022-11-24T06:09:27.689Z,97422.31
2022-11-24T06:11:54.696Z,97438.69
2022-11-24T06:14:22.004Z,97436.16
2022-11-24T06:16:49.093Z,97453.53
2022-11-24T06:19:15.937Z,97457.75
2022-11-24T06:21:43.698Z,97454.13
2022-11-24T06:24:10.515Z,97462.28
2022-11-24T06:26:38.421Z,97462.28
2022-11-24T06:29:05.459Z,97457.75
2022-11-24T06:31:32.607Z,97463.34
2022-11-24T06:34:00.852Z,97466.69
2022-11-24T06:36:28.178Z,97475.81
2022-11-24T06:38:55.033Z,97474.94
2022-11-24T06:41:21.825Z,97483.34
2022-11-24T06:43:49.720Z,97484.06
2022-11-24T06:46:16.602Z,97495.13
2022-11-24T06:48:43.724Z,97494.28
2022-11-24T06:51:13.201Z,97504.97
2022-11-24T06:53:41.103Z,97510.53
2022-11-24T06:56:15.634Z,97504.72
2022-11-24T06:58:47.456Z,97508.84
2022-11-24T07:01:20.125Z,97503.59
2022-11-24T07:03:48.344Z,97504.44
2022-11-24T07:06:16.022Z,97507.50
2022-11-24T07:08:43.622Z,97508.13
2022-11-24T07:11:15.878Z,97517.78
2022-11-24T07:13:43.747Z,97517.38
2022-11-24T07:16:20.433Z,97520.78
2022-11-24T07:18:49.356Z,97522.50
2022-11-24T07:21:16.508Z,97518.34
2022-11-24T07:23:45.631Z,97526.88
2022-11-24T07:26:12.452Z,97519.94
2022-11-24T07:28:39.565Z,97537.59
2022-11-24T07:31:15.619Z,97533.28
2022-11-24T07:33:42.793Z,97536.56
2022-11-24T07:36:10.012Z,97531.25
2022-11-24T07:38:37.759Z,97535.84
2022-11-24T07:41:07.361Z,97548.22
2022-11-24T07:43:36.778Z,97542.63
2022-11-24T07:46:05.705Z,97531.16
2022-11-24T07:48:33.894Z,97536.16
2022-11-24T07:51:04.721Z,97547.72
2022-11-24T07:53:33.296Z,97544.84
2022-11-24T07:56:02.439Z,97555.66
2022-11-24T07:58:33.021Z,97555.56
2022-11-24T08:01:09.126Z,97558.97
2022-11-24T08:03:36.499Z,97560.16
2022-11-24T08:08:51.310Z,97566.28
2022-11-24T08:11:18.410Z,97566.28
2022-11-24T08:13:45.984Z,97574.19
2022-11-24T08:16:15.832Z,97580.13
2022-11-24T08:18:44.242Z,97578.31
2022-11-24T08:21:14.006Z,97580.59
2022-11-24T08:23:42.589Z,97578.66
2022-11-24T08:26:16.780Z,97581.81
2022-11-24T08:28:46.040Z,97583.91
2022-11-24T08:31:21.416Z,97584.88
2022-11-24T08:33:50.299Z,97585.34
2022-11-24T08:36:19.111Z,97590.78
2022-11-24T08:38:47.221Z,97583.47
2022-11-24T08:41:17.341Z,97578.56
2022-11-24T08:43:44.884Z,97583.13
2022-11-24T08:46:17.369Z,97582.81
2022-11-24T08:48:50.352Z,97585.47
2022-11-24T08:51:20.869Z,97587.81
2022-11-24T08:53:47.796Z,97596.84
2022-11-24T08:56:15.723Z,97591.22
2022-11-24T08:58:42.727Z,97590.22
2022-11-24T09:01:16.114Z,97592.41
2022-11-24T09:03:49.900Z,97590.47
2022-11-24T09:06:19.763Z,97593.47
2022-11-24T09:08:46.594Z,97599.66
2022-11-24T09:11:15.630Z,97587.56
2022-11-24T09:13:42.945Z,97586.22
2022-11-24T09:16:18.343Z,97583.72
2022-11-24T09:18:45.528Z,97578.81
2022-11-24T09:21:14.005Z,97579.13
2022-11-24T09:23:41.749Z,97577.28
2022-11-24T09:26:11.873Z,97578.28
2022-11-24T09:28:39.150Z,97576.03
2022-11-24T09:31:08.143Z,97571.78
2022-11-24T09:33:35.421Z,97567.69
2022-11-24T09:36:02.585Z,97572.91
2022-11-24T09:38:29.586Z,97581.28
2022-11-24T09:41:06.175Z,97579.88
2022-11-24T09:43:43.180Z,97583.56
2022-11-24T09:46:20.412Z,97586.22
2022-11-24T09:48:49.448Z,97579.97
2022-11-24T09:51:17.682Z,97571.47
2022-11-24T09:53:47.353Z,97580.41
2022-11-24T09:56:26.463Z,97576.88
2022-11-24T09:59:05.366Z,97580.25
2022-11-24T10:01:37.901Z,97572.56
2022-11-24T10:04:21.111Z,97568.59
2022-11-24T10:06:56.675Z,97572.34
2022-11-24T10:09:33.157Z,97565.34
2022-11-24T10:12:21.515Z,97566.38
2022-11-24T10:14:55.526Z,97579.09
2022-11-24T10:17:49.697Z,97563.44
2022-11-24T10:20:39.411Z,97564.44
2022-11-24T10:23:46.089Z,97575.03
2022-11-24T10:26:34.197Z,97573.59
2022-11-24T10:29:10.951Z,97566.75
2022-11-24T10:31:42.983Z,97576.44
2022-11-24T10:34:10.399Z,97581.69
2022-11-24T10:36:40.670Z,97586.19
2022-11-24T10:39:15.171Z,97591.69
2022-11-24T10:42:01.222Z,97591.53
2022-11-24T10:44:30.017Z,97590.38
2022-11-24T10:46:56.830Z,97588.44
2022-11-24T10:49:31.365Z,97597.28
2022-11-24T10:52:14.377Z,97587.00
2022-11-24T10:54:59.521Z,97587.88
2022-11-24T10:57:31.487Z,97589.31
2022-11-24T10:59:58.736Z,97587.00
2022-11-24T11:02:38.383Z,97572.28
2022-11-24T11:05:42.434Z,97577.50
2022-11-24T11:08:28.074Z,97567.56
2022-11-24T11:11:16.601Z,97569.72
2022-11-24T11:14:03.426Z,97577.13
2022-11-24T11:17:00.650Z,97583.81
2022-11-24T11:20:00.089Z,97581.97
2022-11-24T11:22:31.667Z,97591.03
2022-11-24T11:25:28.734Z,97587.66
2022-11-24T11:28:26.824Z,97583.56
2022-11-24T11:31:18.567Z,97583.41
2022-11-24T11:34:06.300Z,97581.94
2022-11-24T11:36:42.108Z,97578.22
2022-11-24T11:39:16.891Z,97582.53
2022-11-24T11:41:49.915Z,97583.59
2022-11-24T11:44:32.461Z,97580.28
2022-11-24T11:47:05.672Z,97582.22
2022-11-24T11:49:32.692Z,97590.63
2022-11-24T11:52:27.646Z,97593.25
2022-11-24T11:55:15.835Z,97599.19
2022-11-24T11:58:22.778Z,97597.75
2022-11-24T12:01:34.186Z,97591.34
2022-11-24T12:04:35.808Z,97599.50
2022-11-24T12:07:24.774Z,97598.97
2022-11-24T12:10:03.427Z,97593.41
2022-11-24T12:12:47.411Z,97604.50
2022-11-24T12:15:26.181Z,97605.59
2022-11-24T12:18:04.425Z,97608.84
2022-11-24T12:20:43.300Z,97613.63
2022-11-24T12:23:23.657Z,97616.75
2022-11-24T12:26:23.624Z,97620.28
2022-11-24T12:29:09.236Z,97603.00
2022-11-24T12:31:36.115Z,97602.75
2022-11-24T12:34:18.161Z,97606.38
2022-11-24T12:37:26.643Z,97613.22
2022-11-24T12:40:13.678Z,97618.16
2022-11-24T12:43:37.840Z,97611.03
2022-11-24T12:46:23.990Z,97605.88
2022-11-24T12:49:16.972Z,97600.38
2022-11-24T12:51:49.481Z,97621.88
2022-11-24T12:54:20.308Z,97613.31
2022-11-24T12:57:02.619Z,97617.03
2022-11-24T12:59:44.077Z,97614.56
2022-11-24T13:02:29.025Z,97610.41
2022-11-24T13:05:05.226Z,97605.56
2022-11-24T13:07:47.985Z,97607.81
2022-11-24T13:10:46.510Z,97618.88
2022-11-24T13:13:12.989Z,97622.94
2022-11-24T13:16:34.452Z,97622.47
2022-11-24T13:19:14.915Z,97656.56
2022-11-24T13:21:42.923Z,97635.19
2022-11-24T13:24:19.986Z,97637.88
2022-11-24T13:26:50.103Z,97636.50
2022-11-24T13:29:35.624Z,97628.00
2022-11-24T13:32:02.467Z,97630.13
2022-11-24T13:34:42.909Z,97636.50
2022-11-24T13:37:32.029Z,97624.19
2022-11-24T13:40:11.999Z,97629.44
2022-11-24T13:42:57.905Z,97632.97
2022-11-24T13:45:40.298Z,97633.25
2022-11-24T13:48:20.948Z,97640.03
2022-11-24T13:50:53.500Z,97643.44
2022-11-24T13:53:39.339Z,97645.13
2022-11-24T13:56:11.383Z,97651.63
2022-11-24T13:59:01.897Z,97643.44
2022-11-24T14:01:33.152Z,97644.84
2022-11-24T14:07:05.548Z,97653.34
2022-11-24T14:09:47.652Z,97651.66
2022-11-24T14:12:20.425Z,97649.09
2022-11-24T14:14:49.433Z,97653.22
2022-11-24T14:17:17.983Z,97660.47
2022-11-24T14:19:50.961Z,97662.97
2022-11-24T14:22:22.182Z,97665.22
2022-11-24T14:24:54.819Z,97666.94
2022-11-24T14:27:38.233Z,97666.09
2022-11-24T14:30:08.326Z,97683.78
2022-11-24T14:32:35.376Z,97671.03
2022-11-24T14:35:02.645Z,97684.50
2022-11-24T14:37:29.720Z,97671.34
2022-11-24T14:39:56.645Z,97677.72
2022-11-24T14:42:27.491Z,97684.22
2022-11-24T14:44:59.129Z,97677.97
2022-11-24T14:47:33.871Z,97680.81
2022-11-24T14:50:12.387Z,97684.47
2022-11-24T14:52:52.645Z,97698.19
2022-11-24T14:55:35.374Z,97707.41
2022-11-24T14:58:02.594Z,97713.88
2022-11-24T15:00:31.912Z,97699.44
2022-11-24T15:03:16.086Z,97706.25
2022-11-24T15:05:58.659Z,97711.19
2022-11-24T15:08:27.882Z,97729.50
2022-11-24T15:11:03.195Z,97711.72
2022-11-24T15:13:37.332Z,97730.31
2022-11-24T15:16:15.947Z,97740.91
2022-11-24T15:18:46.639Z,97743.34
2022-11-24T15:21:18.922Z,97751.84
2022-11-24T15:24:06.471Z,97748.19
2022-11-24T15:26:38.494Z,97753.13
2022-11-24T15:29:10.502Z,97767.47
2022-11-24T15:31:38.544Z,97770.84
2022-11-24T15:34:06.212Z,97771.56
2022-11-24T15:36:33.618Z,97778.31
2022-11-24T15:39:00.706Z,97789.56
2022-11-24T15:41:32.861Z,97777.97
2022-11-24T15:44:03.448Z,97792.81
2022-11-24T15:46:38.277Z,97799.25
2022-11-24T15:49:07.395Z,97794.63
2022-11-24T15:51:38.056Z,97808.47
2022-11-24T15:54:07.687Z,97803.31
2022-11-24T15:56:36.971Z,97802.19
2022-11-24T15:59:04.589Z,97818.03
2022-11-24T16:01:33.917Z,97818.63
2022-11-24T16:04:02.535Z,97810.19
2022-11-24T16:06:29.916Z,97811.13
2022-11-24T16:08:58.502Z,97798.63
2022-11-24T16:11:25.966Z,97818.44
2022-11-24T16:13:54.323Z,97816.19
2022-11-24T16:16:25.021Z,97805.28
2022-11-24T16:18:52.602Z,97811.91
2022-11-24T16:21:19.904Z,97803.38
2022-11-24T16:23:48.245Z,97802.44
2022-11-24T16:26:15.137Z,97796.88
2022-11-24T16:28:43.007Z,97815.41
2022-11-24T16:31:10.126Z,97828.59
2022-11-24T16:33:40.726Z,97814.44
2022-11-24T16:36:08.577Z,97824.78
2022-11-24T16:38:36.225Z,97837.44
2022-11-24T16:41:03.128Z,97814.44
2022-11-24T16:43:30.956Z,97814.19
2022-11-24T16:46:07.625Z,97825.28
2022-11-24T16:48:37.994Z,97831.44
2022-11-24T16:51:10.610Z,97814.78
2022-11-24T16:53:40.269Z,97824.94
2022-11-24T16:56:08.992Z,97832.09
2022-11-24T16:58:45.942Z,97827.19
2022-11-24T17:01:15.720Z,97841.59
2022-11-24T17:03:42.662Z,97842.81
2022-11-24T17:06:12.695Z,97842.56
2022-11-24T17:08:40.583Z,97834.78
2022-11-24T17:11:13.908Z,97830.91
2022-11-24T17:13:42.188Z,97837.00
2022-11-24T17:16:11.714Z,97837.88
2022-11-24T17:18:39.762Z,97838.78
2022-11-24T17:21:10.179Z,97841.53
2022-11-24T17:23:37.732Z,97843.84
2022-11-24T17:26:07.508Z,97848.72
2022-11-24T17:28:36.251Z,97857.28
2022-11-24T17:31:07.451Z,97852.25
2022-11-24T17:33:35.523Z,97860.44
2022-11-24T17:36:04.210Z,97858.00
2022-11-24T17:38:31.444Z,97870.72
2022-11-24T17:40:58.791Z,97874.66
2022-11-24T17:43:27.502Z,97872.25
2022-11-24T17:45:56.179Z,97893.38
2022-11-24T17:48:24.519Z,97879.34
2022-11-24T17:51:12.601Z,97873.94
2022-11-24T17:53:40.966Z,97877.47
2022-11-24T17:56:12.170Z,97885.03
2022-11-24T17:58:42.862Z,97889.09
2022-11-24T18:01:11.533Z,97892.31
2022-11-24T18:03:42.032Z,97893.44
2022-11-24T18:06:14.067Z,97901.50
2022-11-24T18:08:43.743Z,97883.56
2022-11-24T18:11:12.480Z,97902.13
2022-11-24T18:13:59.943Z,97897.47
2022-11-24T18:16:28.363Z,97897.31
2022-11-24T18:19:07.796Z,97896.34
2022-11-24T18:21:36.255Z,97899.88
2022-11-24T18:24:03.253Z,97908.41
2022-11-24T18:26:30.113Z,97895.47
2022-11-24T18:28:57.076Z,97907.94
2022-11-24T18:31:24.079Z,97901.72
2022-11-24T18:33:50.951Z,97913.78
2022-11-24T18:36:23.559Z,97911.56
2022-11-24T18:38:53.986Z,97907.78
2022-11-24T18:41:21.731Z,97920.06
2022-11-24T18:43:48.553Z,97911.91
2022-11-24T18:46:18.374Z,97909.94
2022-11-24T18:48:48.476Z,97916.19
2022-11-24T18:51:15.420Z,97919.81
2022-11-24T18:53:43.983Z,97917.38
2022-11-24T18:56:17.842Z,97920.47
2022-11-24T18:58:45.252Z,97918.88
2022-11-24T19:01:13.834Z,97919.16
2022-11-24T19:03:48.591Z,97923.03
2022-11-24T19:06:19.344Z,97924.28
2022-11-24T19:08:46.915Z,97926.38
2022-11-24T19:11:28.649Z,97925.03
2022-11-24T19:13:56.952Z,97928.31
2022-11-24T19:16:25.205Z,97930.41
2022-11-24T19:19:02.691Z,97932.38
2022-11-24T19:21:48.314Z,97938.94
2022-11-24T19:24:15.429Z,97941.63
2022-11-24T19:26:42.318Z,97941.63
2022-11-24T19:29:10.498Z,97951.03
2022-11-24T19:31:39.667Z,97942.22
2022-11-24T19:34:08.110Z,97951.84
2022-11-24T19:36:35.319Z,97945.91
2022-11-24T19:39:07.613Z,97942.72
2022-11-24T19:41:34.670Z,97947.25
2022-11-24T19:44:01.824Z,97930.75
2022-11-24T19:46:29.910Z,97938.09
2022-11-24T19:49:00.018Z,97941.34
2022-11-24T19:51:31.071Z,97943.56
2022-11-24T19:53:58.589Z,97953.09
2022-11-24T19:56:27.901Z,97953.31
2022-11-24T19:58:56.055Z,97957.22
2022-11-24T20:01:31.889Z,97959.66
2022-11-24T20:04:01.636Z,97953.78
2022-11-24T20:06:31.633Z,97955.03
2022-11-24T20:09:00.532Z,97958.81
2022-11-24T20:11:28.456Z,97971.00
2022-11-24T20:13:56.112Z,97970.72
2022-11-24T20:16:29.704Z,97975.47
2022-11-24T20:19:02.750Z,97979.09
2022-11-24T20:21:35.461Z,97974.34
2022-11-24T20:24:06.076Z,97975.19
2022-11-24T20:26:39.050Z,97979.81
2022-11-24T20:29:09.690Z,97970.22
2022-11-24T20:31:39.384Z,97977.63
2022-11-24T20:34:07.773Z,97978.81
2022-11-24T20:36:37.265Z,97978.34
2022-11-24T20:39:07.552Z,97981.97
2022-11-24T20:41:37.500Z,97984.16
2022-11-24T20:44:10.648Z,97990.72
2022-11-24T20:46:38.973Z,97998.97
2022-11-24T20:49:08.742Z,97993.00
2022-11-24T20:51:39.875Z,97995.06
2022-11-24T20:54:08.933Z,97989.19
2022-11-24T20:56:39.841Z,98006.25
2022-11-24T20:59:07.848Z,98002.94
2022-11-24T21:01:40.737Z,97992.97
2022-11-24T21:04:09.904Z,97994.03
2022-11-24T21:06:37.358Z,97994.75
2022-11-24T21:09:05.670Z,97996.50
2022-11-24T21:11:33.055Z,98005.47
2022-11-24T21:14:00.909Z,98002.06
2022-11-24T21:16:30.845Z,98006.56
2022-11-24T21:19:03.966Z,97993.28
2022-11-24T21:21:35.065Z,98008.16
2022-11-24T21:24:03.740Z,98014.28
2022-11-24T21:26:31.087Z,98010.63
2022-11-24T21:28:58.376Z,98008.22
2022-11-24T21:31:26.108Z,98010.53
2022-11-24T21:33:54.359Z,98011.94
2022-11-24T21:36:23.634Z,98009.00
2022-11-24T21:38:52.408Z,98004.53
2022-11-24T21:41:20.605Z,98005.13
2022-11-24T21:43:47.549Z,97995.25
2022-11-24T21:46:14.922Z,98008.28
2022-11-24T21:48:48.564Z,98002.72
2022-11-24T21:51:17.724Z,98007.22
2022-11-24T21:53:45.703Z,98016.63
2022-11-24T21:56:18.294Z,98010.16
2022-11-24T21:58:53.788Z,98026.00
2022-11-24T22:01:23.154Z,98030.31
2022-11-24T22:03:50.569Z,98028.59
2022-11-24T22:06:19.386Z,98028.88
2022-11-24T22:08:47.622Z,98026.19
2022-11-24T22:11:17.165Z,98035.06
2022-11-24T22:13:44.443Z,98038.72
2022-11-24T22:16:14.763Z,98040.09
2022-11-24T22:18:43.419Z,98029.38
2022-11-24T22:21:13.317Z,98033.63
2022-11-24T22:23:40.612Z,98034.22
2022-11-24T22:26:16.630Z,98046.75
2022-11-24T22:28:44.776Z,98052.00
2022-11-24T22:31:15.343Z,98050.63
2022-11-24T22:33:43.796Z,98056.38
2022-11-24T22:36:12.172Z,98055.19
2022-11-24T22:38:39.731Z,98063.75
2022-11-24T22:41:12.577Z,98059.69
2022-11-24T22:43:41.361Z,98058.44
2022-11-24T22:46:14.397Z,98068.69
2022-11-24T22:48:41.991Z,98077.63
2022-11-24T22:51:17.656Z,98083.56
2022-11-24T22:53:49.250Z,98088.03
2022-11-24T22:56:17.443Z,98083.44
2022-11-24T22:58:44.391Z,98091.06
2022-11-24T23:01:14.051Z,98090.50
2022-11-24T23:03:41.641Z,98086.00
2022-11-24T23:06:22.953Z,98084.19
2022-11-24T23:08:50.929Z,98075.13
2022-11-24T23:11:29.140Z,98071.78
2022-11-24T23:14:00.612Z,98075.38
2022-11-24T23:16:29.033Z,98076.84
2022-11-24T23:18:58.972Z,98080.94
2022-11-24T23:21:28.618Z,98081.75
2022-11-24T23:23:56.554Z,98079.59
2022-11-24T23:26:28.880Z,98083.41
2022-11-24T23:28:56.006Z,98090.25
2022-11-24T23:31:27.512Z,98079.31
2022-11-24T23:33:55.273Z,98097.16
2022-11-24T23:36:22.693Z,98089.22
2022-11-24T23:38:50.088Z,98081.31
2022-11-24T23:41:23.303Z,98084.28
2022-11-24T23:43:50.897Z,98091.56
2022-11-24T23:46:23.190Z,98094.22
2022-11-24T23:48:51.439Z,98086.59
2022-11-24T23:51:24.404Z,98090.91
2022-11-24T23:53:52.209Z,98092.47
2022-11-24T23:56:26.759Z,98110.03
2022-11-24T23:58:53.816Z,98101.25
